Time;durP1;ratioP1;P1;durP2;ratioP2;P2;SDS_P1;SDS_P2;PMS_P1;PMS_P2;Temp;Humidity;BMP_temperature;BMP_pressure;BME280_temperature;BME280_humidity;BME280_pressure;Samples;Min_cycle;Max_cycle;Signal;HPM_P1;HPM_P2
2023/01/06 00:01:57;;;;;;;;;;;;;;;13.55;49.94;101240.38;4986120;27;130389;-66
2023/01/06 00:04:23;;;;;;;;;;;;;;;13.55;49.76;101229.56;4985075;27;98484;-69
2023/01/06 00:06:49;;;;;;;;;;;;;;;13.54;49.50;101223.31;4966746;27;127044;-69
2023/01/06 00:09:15;;;;;;;;;;;;;;;13.54;49.87;101227.94;4964900;27;117389;-65
2023/01/06 00:11:41;;;;;;;;;;;;;;;13.56;49.92;101236.59;4983580;27;129321;-65
2023/01/06 00:14:07;;;;;;;;;;;;;;;13.56;49.57;101242.00;4982551;27;126961;-68
2023/01/06 00:16:33;;;;;;;;;;;;;;;13.55;49.59;101238.50;4964352;27;127093;-67
2023/01/06 00:18:59;;;;;;;;;;;;;;;13.57;49.97;101246.38;4983539;27;98596;-69
2023/01/06 00:21:25;;;;;;;;;;;;;;;13.56;50.07;101240.13;4968123;27;109626;-65
2023/01/06 00:23:51;;;;;;;;;;;;;;;13.57;49.96;101238.25;4966577;27;128740;-68
2023/01/06 00:26:17;;;;;;;;;;;;;;;13.57;49.76;101224.69;4969782;27;106738;-69
2023/01/06 00:28:43;;;;;;;;;;;;;;;13.57;49.69;101230.13;4967165;27;117158;-68
2023/01/06 00:31:11;;;;;;;;;;;;;;;13.57;49.68;101232.81;4981741;27;98452;-69
2023/01/06 00:33:37;;;;;;;;;;;;;;;13.57;49.73;101227.41;5001645;27;98010;-66
2023/01/06 00:36:04;;;;;;;;;;;;;;;13.57;49.53;101228.22;4968830;27;98081;-65
2023/01/06 00:38:30;;;;;;;;;;;;;;;13.56;49.52;101226.59;4985045;27;98029;-65
2023/01/06 00:40:56;;;;;;;;;;;;;;;13.57;49.66;101227.41;4981400;27;110803;-65
2023/01/06 00:43:22;;;;;;;;;;;;;;;13.56;49.79;101231.16;4999537;27;122808;-68
2023/01/06 00:45:48;;;;;;;;;;;;;;;13.55;49.70;101229.56;4999596;27;127248;-69
2023/01/06 00:48:13;;;;;;;;;;;;;;;13.56;49.63;101231.16;4983690;27;117216;-65
2023/01/06 00:50:39;;;;;;;;;;;;;;;13.57;49.33;101227.41;4981995;27;128499;-66
2023/01/06 00:53:05;;;;;;;;;;;;;;;13.56;49.89;101228.47;4978477;27;130566;-66
2023/01/06 00:55:31;;;;;;;;;;;;;;;13.56;49.85;101225.75;4962019;27;123765;-66
2023/01/06 00:57:57;;;;;;;;;;;;;;;13.57;49.91;101224.69;4979886;27;116413;-66
2023/01/06 01:00:23;;;;;;;;;;;;;;;13.56;49.52;101218.47;4967598;27;128053;-66
2023/01/06 01:02:49;;;;;;;;;;;;;;;13.57;49.48;101222.78;4964139;27;100376;-69
2023/01/06 01:05:15;;;;;;;;;;;;;;;13.57;49.73;101225.50;4980019;27;127726;-65
2023/01/06 01:07:41;;;;;;;;;;;;;;;13.58;49.85;101223.59;4998309;27;99280;-70
2023/01/06 01:10:07;;;;;;;;;;;;;;;13.57;49.63;101233.63;4981581;27;98431;-69
2023/01/06 01:12:33;;;;;;;;;;;;;;;13.58;49.92;101234.44;4982212;27;98100;-70
2023/01/06 01:14:59;;;;;;;;;;;;;;;13.57;49.54;101244.47;5000128;27;126397;-68
2023/01/06 01:17:27;;;;;;;;;;;;;;;13.57;49.69;101241.75;4978858;27;116887;-65
2023/01/06 01:19:54;;;;;;;;;;;;;;;13.57;49.86;101241.75;4967785;27;99622;-65
2023/01/06 01:22:21;;;;;;;;;;;;;;;13.58;49.70;101235.25;4984123;27;98250;-69
2023/01/06 01:24:46;;;;;;;;;;;;;;;13.58;49.57;101231.72;4964803;27;99805;-66
2023/01/06 01:27:12;;;;;;;;;;;;;;;13.57;49.65;101222.78;4983000;27;117489;-66
2023/01/06 01:29:38;;;;;;;;;;;;;;;13.58;49.47;101220.91;4966589;27;121407;-70
2023/01/06 01:32:04;;;;;;;;;;;;;;;13.58;49.81;101223.59;4978734;27;128285;-68
2023/01/06 01:34:30;;;;;;;;;;;;;;;13.58;49.68;101224.41;4980995;27;97913;-66
2023/01/06 01:36:56;;;;;;;;;;;;;;;13.57;49.69;101224.69;4982947;27;116778;-66
2023/01/06 01:39:24;;;;;;;;;;;;;;;13.55;49.79;101219.53;4972161;27;98212;-68
2023/01/06 01:41:50;;;;;;;;;;;;;;;13.55;49.63;101226.84;4994847;27;98406;-68
2023/01/06 01:44:54;;;;;;;;;;;;;;;13.54;49.92;101230.66;4967536;27;114556;-70
2023/01/06 01:47:30;;;;;;;;;;;;;;;13.51;49.74;101223.84;4997410;27;98054;-69
2023/01/06 01:50:00;;;;;;;;;;;;;;;13.52;49.57;101217.38;4990825;27;98475;-69
2023/01/06 01:52:26;;;;;;;;;;;;;;;13.49;49.51;101218.72;4983373;27;98230;-66
2023/01/06 01:54:52;;;;;;;;;;;;;;;13.49;49.92;101215.19;4987026;27;99330;-66
2023/01/06 01:57:22;;;;;;;;;;;;;;;13.49;49.65;101209.78;4982606;27;97934;-66
2023/01/06 01:59:48;;;;;;;;;;;;;;;13.47;49.89;101210.03;4983010;27;98493;-70
2023/01/06 02:02:14;;;;;;;;;;;;;;;13.46;49.93;101205.72;4987785;27;98152;-66
2023/01/06 02:04:41;;;;;;;;;;;;;;;13.46;49.52;101207.59;4984748;27;111048;-69
2023/01/06 02:07:07;;;;;;;;;;;;;;;13.44;49.63;101207.88;4998307;27;98021;-66
2023/01/06 02:09:40;;;;;;;;;;;;;;;13.45;49.78;101206.00;4968894;27;128410;-66
2023/01/06 02:12:06;;;;;;;;;;;;;;;13.43;49.95;101208.94;4985460;27;106463;-66
2023/01/06 02:14:32;;;;;;;;;;;;;;;13.41;49.86;101194.88;4999019;27;126283;-66
2023/01/06 02:17:11;;;;;;;;;;;;;;;13.41;49.71;101199.47;5002218;27;117104;-67
2023/01/06 02:20:14;;;;;;;;;;;;;;;13.42;49.77;101201.09;5003805;27;98946;-70
2023/01/06 02:22:43;;;;;;;;;;;;;;;13.40;49.88;101192.41;5020290;27;99296;-65
2023/01/06 02:25:37;;;;;;;;;;;;;;;13.40;49.53;101187.00;4996859;27;99928;-66
2023/01/06 02:28:54;;;;;;;;;;;;;;;13.39;49.56;101188.09;5004824;27;99347;-70
2023/01/06 02:31:49;;;;;;;;;;;;;;;13.38;49.65;101183.78;4983175;27;99607;-69
2023/01/06 02:34:24;;;;;;;;;;;;;;;13.35;49.42;101179.69;4962775;27;99525;-65
2023/01/06 02:37:08;;;;;;;;;;;;;;;13.33;49.55;101176.47;5020346;27;98053;-65
2023/01/06 02:39:34;;;;;;;;;;;;;;;13.31;49.88;101181.31;4997116;27;98146;-69
2023/01/06 02:42:29;;;;;;;;;;;;;;;13.29;49.90;101171.84;5002227;27;101112;-69
2023/01/06 02:45:17;;;;;;;;;;;;;;;13.28;49.50;101154.75;4982596;27;114340;-69
2023/01/06 02:47:48;;;;;;;;;;;;;;;13.26;49.62;101160.47;4987434;27;125833;-65
2023/01/06 02:50:37;;;;;;;;;;;;;;;13.26;49.52;101154.25;5002153;27;98097;-67
2023/01/06 02:53:06;;;;;;;;;;;;;;;13.25;49.51;101139.88;4920017;27;1859565;-66
2023/01/06 02:55:52;;;;;;;;;;;;;;;13.24;49.72;101138.28;5004603;27;98321;-69
2023/01/06 02:58:33;;;;;;;;;;;;;;;13.24;49.62;101149.09;4982436;27;113094;-68
2023/01/06 03:01:36;;;;;;;;;;;;;;;13.23;49.81;101142.03;5001418;27;98031;-65
2023/01/06 03:04:05;;;;;;;;;;;;;;;13.23;49.45;101147.44;4951518;27;100248;-66
2023/01/06 03:06:31;;;;;;;;;;;;;;;13.23;49.76;101133.91;4986863;27;103367;-69
2023/01/06 03:08:57;;;;;;;;;;;;;;;13.23;49.91;101136.63;4970275;27;126993;-69
2023/01/06 03:11:24;;;;;;;;;;;;;;;13.24;49.50;101130.16;4971079;27;98571;-69
2023/01/06 03:13:57;;;;;;;;;;;;;;;13.24;49.45;101113.91;4986626;27;97889;-68
2023/01/06 03:16:23;;;;;;;;;;;;;;;13.24;49.84;101119.31;4985518;27;118386;-65
2023/01/06 03:18:50;;;;;;;;;;;;;;;13.25;49.86;101133.66;4967689;27;127177;-65
2023/01/06 03:21:18;;;;;;;;;;;;;;;13.26;49.84;101129.88;4967471;27;98206;-66
2023/01/06 03:23:44;;;;;;;;;;;;;;;13.26;49.71;101127.16;4985034;27;98602;-65
2023/01/06 03:26:10;;;;;;;;;;;;;;;13.27;49.68;101128.78;4967722;27;99974;-65
2023/01/06 03:28:37;;;;;;;;;;;;;;;13.26;49.74;101117.16;4970932;27;130372;-69
2023/01/06 03:31:22;;;;;;;;;;;;;;;13.28;49.38;101116.88;4972384;27;97956;-65
2023/01/06 03:34:00;;;;;;;;;;;;;;;13.29;49.75;101123.13;4969913;27;129078;-69
2023/01/06 03:36:59;;;;;;;;;;;;;;;13.29;49.50;101121.22;4971494;27;121079;-66
2023/01/06 03:39:32;;;;;;;;;;;;;;;13.30;49.72;101120.13;4946671;27;100476;-68
2023/01/06 03:45:13;;;;;;;;;;;;;;;13.33;49.56;101124.19;5001826;27;99361;-67
2023/01/06 03:47:43;;;;;;;;;;;;;;;13.33;49.41;101121.50;4995765;27;98523;-68
2023/01/06 03:50:15;;;;;;;;;;;;;;;13.33;49.87;101114.19;5002265;27;114678;-69
2023/01/06 03:52:44;;;;;;;;;;;;;;;13.34;49.57;101104.97;4965473;27;117962;-69
2023/01/06 03:55:14;;;;;;;;;;;;;;;13.34;49.48;101107.69;4979861;27;99995;-68
2023/01/06 03:57:43;;;;;;;;;;;;;;;13.35;49.83;101106.59;4976539;27;123440;-66
2023/01/06 04:00:13;;;;;;;;;;;;;;;13.35;49.57;101109.28;4978584;27;98206;-66
2023/01/06 04:02:39;;;;;;;;;;;;;;;13.36;49.51;101100.09;4994481;27;98001;-69
2023/01/06 04:05:18;;;;;;;;;;;;;;;13.36;49.56;101102.81;4979253;27;126134;-65
2023/01/06 04:07:44;;;;;;;;;;;;;;;13.37;49.65;101096.31;4979862;27;98042;-66
2023/01/06 04:10:10;;;;;;;;;;;;;;;13.37;49.82;101090.91;4994878;27;98784;-68
2023/01/06 04:12:39;;;;;;;;;;;;;;;13.37;49.48;101088.19;4962625;27;99958;-66
2023/01/06 04:15:10;;;;;;;;;;;;;;;13.38;49.69;101083.56;4966158;27;99470;-68
2023/01/06 04:17:37;;;;;;;;;;;;;;;13.38;49.58;101081.69;4977459;27;98317;-69
2023/01/06 04:20:04;;;;;;;;;;;;;;;13.38;49.63;101089.00;4962839;27;99561;-68
2023/01/06 04:22:30;;;;;;;;;;;;;;;13.39;49.50;101077.06;4962704;27;106188;-68
2023/01/06 04:24:56;;;;;;;;;;;;;;;13.37;49.74;101077.34;4960914;27;128846;-68
2023/01/06 04:27:22;;;;;;;;;;;;;;;13.39;49.66;101079.78;4974732;27;127930;-65
2023/01/06 04:29:48;;;;;;;;;;;;;;;13.38;49.59;101078.97;4977952;27;126482;-69
2023/01/06 04:32:14;;;;;;;;;;;;;;;13.40;49.76;101075.97;4979486;27;117294;-68
2023/01/06 04:34:40;;;;;;;;;;;;;;;13.39;49.66;101067.06;4963399;27;98538;-69
2023/01/06 04:37:06;;;;;;;;;;;;;;;13.38;49.88;101068.16;4979971;27;98328;-67
2023/01/06 04:39:32;;;;;;;;;;;;;;;13.39;49.80;101061.63;4976357;27;107811;-65
2023/01/06 04:41:57;;;;;;;;;;;;;;;13.39;49.49;101066.25;4962194;27;116792;-68
2023/01/06 04:44:24;;;;;;;;;;;;;;;13.39;49.82;101064.34;4978587;27;128277;-65
2023/01/06 04:46:49;;;;;;;;;;;;;;;13.39;49.43;101067.06;4962098;27;99914;-65
2023/01/06 04:49:15;;;;;;;;;;;;;;;13.40;49.43;101063.28;4978697;27;127681;-65
2023/01/06 04:51:41;;;;;;;;;;;;;;;13.41;49.87;101066.81;4980233;27;118698;-65
2023/01/06 04:54:07;;;;;;;;;;;;;;;13.40;49.43;101063.28;4985771;27;127313;-65
2023/01/06 04:56:33;;;;;;;;;;;;;;;13.40;49.45;101059.75;4967468;27;127526;-68
2023/01/06 04:58:59;;;;;;;;;;;;;;;13.42;49.42;101058.38;5000811;27;127464;-63
2023/01/06 05:01:25;;;;;;;;;;;;;;;13.42;49.72;101049.47;4968170;27;117196;-63
2023/01/06 05:03:51;;;;;;;;;;;;;;;13.42;49.85;101047.56;4969254;27;98232;-63
2023/01/06 05:06:17;;;;;;;;;;;;;;;13.43;49.56;101037.53;4982098;27;129923;-66
2023/01/06 05:08:44;;;;;;;;;;;;;;;13.42;49.89;101025.09;4984709;27;121059;-63
2023/01/06 05:11:18;;;;;;;;;;;;;;;13.42;49.86;101019.66;4967727;27;98283;-63
2023/01/06 05:13:44;;;;;;;;;;;;;;;13.43;49.80;101022.09;4971448;27;104281;-67
2023/01/06 05:16:14;;;;;;;;;;;;;;;13.43;49.57;101021.28;4984500;27;101941;-63
2023/01/06 05:18:40;;;;;;;;;;;;;;;13.43;49.41;101013.16;4978378;27;115826;-63
2023/01/06 05:21:06;;;;;;;;;;;;;;;13.43;49.40;101018.56;4983673;27;117666;-68
2023/01/06 05:23:32;;;;;;;;;;;;;;;13.42;49.87;101016.97;4966830;27;98066;-63
2023/01/06 05:25:58;;;;;;;;;;;;;;;13.42;49.73;101006.13;4998144;27;128310;-63
2023/01/06 05:28:24;;;;;;;;;;;;;;;13.41;49.80;101018.06;4982534;27;112836;-68
2023/01/06 05:30:50;;;;;;;;;;;;;;;13.41;49.89;101018.06;4981242;27;110140;-64
2023/01/06 05:33:16;;;;;;;;;;;;;;;13.40;49.68;101011.84;4968368;27;97972;-64
2023/01/06 05:35:42;;;;;;;;;;;;;;;13.41;49.46;101015.34;4985523;27;127269;-68
2023/01/06 05:38:08;;;;;;;;;;;;;;;13.39;49.64;101010.19;4967265;27;129875;-64
2023/01/06 05:40:34;;;;;;;;;;;;;;;13.39;49.79;101009.38;4978162;27;117449;-67
2023/01/06 05:43:00;;;;;;;;;;;;;;;13.39;49.86;101012.91;4968666;27;98092;-68
2023/01/06 05:45:26;;;;;;;;;;;;;;;13.39;49.78;101009.38;4985435;27;112886;-63
2023/01/06 05:47:52;;;;;;;;;;;;;;;13.40;49.83;101011.00;4986109;27;99218;-64
2023/01/06 05:50:18;;;;;;;;;;;;;;;13.41;49.72;101010.75;4987705;27;117968;-67
2023/01/06 05:52:44;;;;;;;;;;;;;;;13.40;49.92;101005.59;5001417;27;98343;-64
2023/01/06 05:55:10;;;;;;;;;;;;;;;13.41;49.82;101009.94;4982507;27;127742;-64
2023/01/06 05:57:36;;;;;;;;;;;;;;;13.41;49.67;101002.63;4982430;27;127348;-68
2023/01/06 06:00:05;;;;;;;;;;;;;;;13.41;49.40;101007.22;4964486;27;118135;-64
2023/01/06 06:02:31;;;;;;;;;;;;;;;13.41;49.51;100994.50;4981391;27;98726;-65
2023/01/06 06:04:57;;;;;;;;;;;;;;;13.47;49.85;100996.09;4976339;27;128054;-64
2023/01/06 06:07:23;;;;;;;;;;;;;;;13.53;49.71;100991.50;4977975;27;127346;-69
2023/01/06 06:09:49;;;;;;;;;;;;;;;13.62;49.64;100991.75;4979628;27;117602;-69
2023/01/06 06:12:15;;;;;;;;;;;;;;;13.69;49.74;100995.78;4964362;27;128384;-65
2023/01/06 06:14:41;;;;;;;;;;;;;;;13.74;49.64;100992.25;4964166;27;126204;-69
2023/01/06 06:17:07;;;;;;;;;;;;;;;13.78;49.60;100979.78;4977541;27;127700;-69
2023/01/06 06:19:33;;;;;;;;;;;;;;;13.82;49.86;100980.84;4964448;27;117243;-68
2023/01/06 06:21:59;;;;;;;;;;;;;;;13.86;49.79;100984.63;4979313;27;130894;-69
2023/01/06 06:24:25;;;;;;;;;;;;;;;13.88;49.65;100987.06;4980570;27;98185;-69
2023/01/06 06:26:51;;;;;;;;;;;;;;;13.91;49.91;100981.06;4978764;27;127223;-64
2023/01/06 06:29:17;;;;;;;;;;;;;;;13.93;49.55;100979.72;4979185;27;119138;-67
2023/01/06 06:31:43;;;;;;;;;;;;;;;13.94;49.84;100984.03;4959240;27;129036;-69
2023/01/06 06:34:09;;;;;;;;;;;;;;;13.97;49.73;100972.66;4977359;27;100008;-64
2023/01/06 06:36:35;;;;;;;;;;;;;;;13.98;49.96;100982.41;4975779;27;116384;-64
2023/01/06 06:39:01;;;;;;;;;;;;;;;13.98;49.85;100979.69;4961440;27;116886;-63
2023/01/06 06:41:27;;;;;;;;;;;;;;;13.99;49.91;100981.34;4975304;27;103044;-68
2023/01/06 06:43:53;;;;;;;;;;;;;;;14.00;49.48;100988.38;4978584;27;127736;-68
2023/01/06 06:46:19;;;;;;;;;;;;;;;14.00;49.58;100979.44;4957986;27;126967;-63
2023/01/06 06:48:45;;;;;;;;;;;;;;;14.02;49.53;100987.28;4962184;27;110736;-68
2023/01/06 06:51:13;;;;;;;;;;;;;;;14.03;49.55;100978.03;4977981;27;98806;-66
2023/01/06 06:53:39;;;;;;;;;;;;;;;14.03;49.93;100970.75;5003354;27;99674;-66
2023/01/06 06:56:06;;;;;;;;;;;;;;;14.03;49.58;100964.50;4982128;27;98124;-67
2023/01/06 06:58:32;;;;;;;;;;;;;;;14.02;49.56;100969.09;4988006;27;98139;-63
2023/01/06 07:00:58;;;;;;;;;;;;;;;14.04;49.84;100958.00;4986226;27;98982;-63
2023/01/06 07:03:24;;;;;;;;;;;;;;;14.04;50.08;100958.00;4965193;27;129255;-63
2023/01/06 07:05:50;;;;;;;;;;;;;;;14.04;49.92;100960.72;4999525;27;127430;-62
2023/01/06 07:08:16;;;;;;;;;;;;;;;14.03;49.71;100956.34;4982650;27;97998;-68
2023/01/06 07:10:42;;;;;;;;;;;;;;;14.03;49.84;100951.78;4971740;27;127855;-63
2023/01/06 07:13:08;;;;;;;;;;;;;;;14.03;49.56;100951.78;4960301;27;101297;-65
2023/01/06 07:15:34;;;;;;;;;;;;;;;14.02;49.51;100947.41;4965736;27;128378;-63
2023/01/06 07:18:01;;;;;;;;;;;;;;;14.02;49.96;100949.31;4963376;27;98738;-68
2023/01/06 07:20:28;;;;;;;;;;;;;;;14.02;49.59;100954.75;4965388;27;99428;-64
2023/01/06 07:22:53;;;;;;;;;;;;;;;14.01;49.84;100940.38;4980981;27;99321;-63
2023/01/06 07:25:20;;;;;;;;;;;;;;;14.01;49.49;100943.09;4986253;27;98049;-64
2023/01/06 07:27:45;;;;;;;;;;;;;;;14.02;49.60;100938.47;4997230;27;98096;-69
2023/01/06 07:30:12;;;;;;;;;;;;;;;14.03;49.89;100940.09;4969307;27;128358;-64
2023/01/06 07:32:38;;;;;;;;;;;;;;;14.03;49.59;100945.50;4981554;27;98622;-63
2023/01/06 07:35:04;;;;;;;;;;;;;;;14.04;49.77;100937.13;4968145;27;127374;-63
2023/01/06 07:37:30;;;;;;;;;;;;;;;14.05;49.89;100932.50;4962724;27;101053;-67
2023/01/06 07:39:56;;;;;;;;;;;;;;;14.06;49.49;100926.78;4968563;27;127354;-64
2023/01/06 07:42:22;;;;;;;;;;;;;;;14.07;49.75;100930.31;4966241;27;128457;-66
2023/01/06 07:44:48;;;;;;;;;;;;;;;14.09;49.68;100933.56;4964924;27;124783;-63
2023/01/06 07:47:14;;;;;;;;;;;;;;;14.10;49.72;100938.69;4960931;27;112642;-64
2023/01/06 07:49:39;;;;;;;;;;;;;;;14.10;49.59;100933.28;4967971;27;127182;-69
2023/01/06 07:52:05;;;;;;;;;;;;;;;14.12;49.79;100941.16;4964350;27;128539;-67
2023/01/06 07:54:31;;;;;;;;;;;;;;;14.11;49.93;100934.94;4947844;27;127109;-64
2023/01/06 07:56:57;;;;;;;;;;;;;;;14.11;49.45;100921.38;4960002;27;117724;-67
2023/01/06 07:59:23;;;;;;;;;;;;;;;14.10;49.75;100917.00;4939263;27;126134;-69
2023/01/06 08:01:49;;;;;;;;;;;;;;;14.11;49.83;100918.66;4961531;27;114614;-68
2023/01/06 08:04:15;;;;;;;;;;;;;;;14.12;49.66;100916.75;4961223;27;127112;-64
2023/01/06 08:06:41;;;;;;;;;;;;;;;14.14;49.62;100909.13;4976786;27;116409;-68
2023/01/06 08:09:07;;;;;;;;;;;;;;;14.16;49.62;100906.97;4977043;27;128965;-68
2023/01/06 08:11:33;;;;;;;;;;;;;;;14.16;49.37;100904.25;4965406;27;99577;-67
2023/01/06 08:13:59;;;;;;;;;;;;;;;14.18;49.83;100899.34;4950492;27;127199;-67
2023/01/06 08:16:24;;;;;;;;;;;;;;;14.22;49.82;100889.56;4964159;27;116992;-68
2023/01/06 08:18:50;;;;;;;;;;;;;;;14.23;49.70;100893.91;4977490;27;128764;-63
2023/01/06 08:21:16;;;;;;;;;;;;;;;14.25;49.71;100894.44;4959082;27;127587;-63
2023/01/06 08:23:42;;;;;;;;;;;;;;;14.29;49.47;100895.50;4939815;27;127272;-64
2023/01/06 08:26:13;;;;;;;;;;;;;;;14.37;49.66;100896.78;4956251;27;117465;-64
2023/01/06 08:28:42;;;;;;;;;;;;;;;14.42;49.57;100899.47;4958894;27;98879;-64
2023/01/06 08:31:13;;;;;;;;;;;;;;;14.45;49.15;100902.41;4940870;27;123752;-69
2023/01/06 08:33:39;;;;;;;;;;;;;;;14.47;49.22;100896.72;4946169;27;99281;-67
2023/01/06 08:36:06;;;;;;;;;;;;;;;14.56;49.29;100892.34;4958189;27;98094;-64
2023/01/06 08:38:33;;;;;;;;;;;;;;;14.76;48.84;100893.25;4951222;27;98678;-65
2023/01/06 08:40:59;;;;;;;;;;;;;;;14.88;48.82;100891.78;4960744;27;98780;-64
2023/01/06 08:43:25;;;;;;;;;;;;;;;15.00;48.96;100891.41;4960449;27;114293;-64
2023/01/06 08:45:51;;;;;;;;;;;;;;;15.14;48.68;100905.13;4942045;27;100326;-69
2023/01/06 08:48:17;;;;;;;;;;;;;;;15.19;48.88;100919.44;4957060;27;112317;-67
2023/01/06 08:50:43;;;;;;;;;;;;;;;15.18;48.97;100914.31;4956678;27;98779;-64
2023/01/06 08:53:09;;;;;;;;;;;;;;;15.16;49.14;100916.50;4967999;27;124657;-67
2023/01/06 08:55:38;;;;;;;;;;;;;;;15.15;49.39;100912.16;4997000;27;108169;-69
2023/01/06 08:58:04;;;;;;;;;;;;;;;15.14;49.22;100910.56;4980718;27;99615;-65
2023/01/06 09:00:30;;;;;;;;;;;;;;;15.17;49.24;100904.56;4980763;27;124500;-65
2023/01/06 09:02:56;;;;;;;;;;;;;;;15.22;49.01;100902.59;4980310;27;117320;-64
2023/01/06 09:05:22;;;;;;;;;;;;;;;15.27;49.04;100898.19;4981393;27;98417;-67
2023/01/06 09:07:49;;;;;;;;;;;;;;;15.33;49.19;100899.78;4979886;27;128112;-69
2023/01/06 09:10:16;;;;;;;;;;;;;;;15.33;49.14;100897.06;4980965;27;98254;-65
2023/01/06 09:12:42;;;;;;;;;;;;;;;15.36;49.27;100908.13;4980571;27;111645;-65
2023/01/06 09:15:08;;;;;;;;;;;;;;;15.41;48.93;100899.94;4960996;27;103109;-68
2023/01/06 09:17:34;;;;;;;;;;;;;;;15.53;48.90;100898.75;4983209;27;123375;-65
2023/01/06 09:20:00;;;;;;;;;;;;;;;15.64;48.68;100901.03;4982843;27;127548;-65
2023/01/06 09:22:25;;;;;;;;;;;;;;;15.73;48.88;100901.22;4966980;27;130467;-65
2023/01/06 09:24:51;;;;;;;;;;;;;;;15.68;48.98;100899.38;4986495;27;118988;-69
2023/01/06 09:27:17;;;;;;;;;;;;;;;15.66;49.05;100896.13;4967114;27;121413;-65
2023/01/06 09:29:43;;;;;;;;;;;;;;;15.77;48.84;100901.47;4974441;27;127495;-65
2023/01/06 09:32:09;;;;;;;;;;;;;;;15.86;48.71;100895.06;4966522;27;128670;-65
2023/01/06 09:34:35;;;;;;;;;;;;;;;15.90;48.82;100896.09;4984493;27;99862;-68
2023/01/06 09:37:01;;;;;;;;;;;;;;;15.92;48.86;100904.78;4976036;27;127253;-66
2023/01/06 09:39:27;;;;;;;;;;;;;;;15.96;48.85;100902.28;4982323;27;129167;-68
2023/01/06 09:42:06;;;;;;;;;;;;;;;16.00;49.00;100903.31;4999941;27;117503;-66
2023/01/06 09:44:39;;;;;;;;;;;;;;;16.03;48.84;100891.84;4984768;27;98574;-65
2023/01/06 09:47:05;;;;;;;;;;;;;;;16.06;48.83;100883.09;4966500;27;122975;-65
2023/01/06 09:49:41;;;;;;;;;;;;;;;16.08;48.92;100875.47;4982243;27;98536;-66
2023/01/06 09:52:27;;;;;;;;;;;;;;;16.07;49.14;100881.19;5000868;27;97940;-68
2023/01/06 09:55:10;;;;;;;;;;;;;;;16.11;49.17;100864.03;4984214;27;112495;-65
2023/01/06 09:57:42;;;;;;;;;;;;;;;16.14;48.86;100868.03;4985677;27;125279;-68
2023/01/06 10:00:44;;;;;;;;;;;;;;;16.20;48.92;100867.69;4968536;27;97939;-67
2023/01/06 10:03:14;;;;;;;;;;;;;;;16.24;48.82;100872.53;4996933;27;98161;-65
2023/01/06 10:05:48;;;;;;;;;;;;;;;16.20;48.90;100870.41;5001318;27;98036;-68
2023/01/06 10:08:14;;;;;;;;;;;;;;;16.14;49.00;100871.56;5015574;27;98457;-67
2023/01/06 10:10:55;;;;;;;;;;;;;;;16.10;49.20;100864.28;5000833;27;98086;-69
2023/01/06 10:13:46;;;;;;;;;;;;;;;16.05;49.21;100850.78;5001516;27;98637;-68
2023/01/06 10:16:36;;;;;;;;;;;;;;;15.99;49.29;100852.75;4999224;27;98088;-68
2023/01/06 10:19:12;;;;;;;;;;;;;;;15.92;49.38;100850.41;4984956;27;99862;-68
2023/01/06 10:21:46;;;;;;;;;;;;;;;15.87;49.37;100860.53;4982999;27;120655;-68
2023/01/06 10:24:38;;;;;;;;;;;;;;;15.83;49.57;100854.06;4996000;27;107250;-64
2023/01/06 10:27:27;;;;;;;;;;;;;;;15.80;49.56;100849.22;4984398;27;112941;-67
2023/01/06 10:29:54;;;;;;;;;;;;;;;15.84;49.57;100850.28;4976822;27;98131;-68
2023/01/06 10:32:20;;;;;;;;;;;;;;;15.84;49.43;100850.28;4998382;27;98083;-63
2023/01/06 10:34:47;;;;;;;;;;;;;;;15.83;49.44;100845.91;4983242;27;97944;-64
2023/01/06 10:37:16;;;;;;;;;;;;;;;15.87;49.32;100838.78;4983632;27;98297;-64
2023/01/06 10:39:43;;;;;;;;;;;;;;;15.87;49.36;100826.00;5019464;27;101140;-65
2023/01/06 10:45:14;;;;;;;;;;;;;;;15.94;49.33;100825.66;5000362;27;98055;-64
2023/01/06 10:47:41;;;;;;;;;;;;;;;15.94;49.22;100817.50;4998466;27;103986;-64
2023/01/06 10:50:13;;;;;;;;;;;;;;;15.92;49.46;100817.78;4966077;27;99743;-67
2023/01/06 10:52:39;;;;;;;;;;;;;;;15.89;49.38;100799.34;4980475;27;125788;-64
2023/01/06 10:55:06;;;;;;;;;;;;;;;15.85;49.43;100798.31;4997658;27;98768;-64
2023/01/06 10:57:37;;;;;;;;;;;;;;;15.84;49.57;100790.47;4995776;27;114851;-65
2023/01/06 11:00:21;;;;;;;;;;;;;;;15.90;49.35;100784.66;4982615;27;98914;-65
2023/01/06 11:02:48;;;;;;;;;;;;;;;16.00;49.15;100789.13;5000556;27;97903;-64
2023/01/06 11:05:40;;;;;;;;;;;;;;;16.07;49.15;100797.72;4980094;27;124831;-65
2023/01/06 11:08:07;;;;;;;;;;;;;;;16.13;49.14;100791.09;4994583;27;117754;-68
2023/01/06 11:10:37;;;;;;;;;;;;;;;16.19;49.18;100789.09;4999320;27;98775;-65
2023/01/06 11:13:03;;;;;;;;;;;;;;;16.20;49.25;100786.09;4979733;27;98162;-68
2023/01/06 11:15:38;;;;;;;;;;;;;;;16.23;49.22;100781.97;4964750;27;98089;-67
2023/01/06 11:18:05;;;;;;;;;;;;;;;16.27;49.16;100777.56;4982650;27;100146;-67
2023/01/06 11:20:32;;;;;;;;;;;;;;;16.34;49.09;100777.16;4967592;27;99749;-68
2023/01/06 11:23:19;;;;;;;;;;;;;;;16.34;49.17;100779.88;4997888;27;98347;-68
2023/01/06 11:26:09;;;;;;;;;;;;;;;16.34;49.14;100777.16;4982519;27;98316;-69
2023/01/06 11:28:35;;;;;;;;;;;;;;;16.32;49.11;100785.63;5000564;27;99552;-68
2023/01/06 11:31:21;;;;;;;;;;;;;;;16.31;49.13;100786.75;4964063;27;127819;-66
2023/01/06 11:34:00;;;;;;;;;;;;;;;16.31;49.25;100785.91;4981116;27;99638;-65
2023/01/06 11:36:27;;;;;;;;;;;;;;;16.34;49.25;100780.69;4984790;27;100190;-68
2023/01/06 11:39:01;;;;;;;;;;;;;;;16.35;49.17;100776.88;4982235;27;98019;-67
2023/01/06 11:41:37;;;;;;;;;;;;;;;16.40;49.24;100770.53;4984140;27;98408;-65
2023/01/06 11:44:12;;;;;;;;;;;;;;;16.50;49.14;100764.88;4982905;27;118367;-66
2023/01/06 11:46:39;;;;;;;;;;;;;;;16.55;48.95;100769.47;4979494;27;124841;-65
2023/01/06 11:49:27;;;;;;;;;;;;;;;16.60;49.07;100774.81;4982185;27;98127;-66
2023/01/06 11:52:18;;;;;;;;;;;;;;;16.61;49.17;100769.03;4950897;27;100367;-66
2023/01/06 11:54:44;;;;;;;;;;;;;;;16.64;49.09;100778.53;4999017;27;100139;-66
2023/01/06 11:57:24;;;;;;;;;;;;;;;16.64;49.03;100767.66;5015425;27;128544;-68
2023/01/06 12:00:09;;;;;;;;;;;;;;;16.64;49.10;100776.63;4980765;27;103324;-65
2023/01/06 12:02:47;;;;;;;;;;;;;;;16.66;49.09;100773.59;4998317;27;99526;-66
2023/01/06 12:05:24;;;;;;;;;;;;;;;16.63;49.25;100757.88;4980293;27;100052;-67
2023/01/06 12:07:51;;;;;;;;;;;;;;;16.67;49.23;100770.59;4966755;27;99051;-68
2023/01/06 12:10:20;;;;;;;;;;;;;;;16.80;49.06;100752.66;4977735;27;99364;-66
2023/01/06 12:12:47;;;;;;;;;;;;;;;16.87;48.99;100753.09;4980855;27;98479;-68
2023/01/06 12:15:13;;;;;;;;;;;;;;;16.98;48.74;100750.13;4961127;27;98250;-66
2023/01/06 12:17:46;;;;;;;;;;;;;;;17.10;48.66;100745.81;4963707;27;98008;-66
2023/01/06 12:20:19;;;;;;;;;;;;;;;17.22;48.54;100744.50;4998975;27;98137;-67
2023/01/06 12:23:07;;;;;;;;;;;;;;;17.38;48.39;100743.06;4998457;27;98444;-66
2023/01/06 12:25:37;;;;;;;;;;;;;;;17.41;48.36;100745.97;4981031;27;98113;-69
2023/01/06 12:28:05;;;;;;;;;;;;;;;17.37;48.74;100760.50;4975040;27;99271;-66
2023/01/06 12:30:53;;;;;;;;;;;;;;;17.30;48.74;100760.94;4980452;27;101647;-67
2023/01/06 12:33:47;;;;;;;;;;;;;;;17.25;48.98;100765.66;4967654;27;99942;-67
2023/01/06 12:36:19;;;;;;;;;;;;;;;17.17;49.11;100764.44;4980035;27;98355;-66
2023/01/06 12:39:00;;;;;;;;;;;;;;;17.16;49.05;100765.56;4977769;27;121817;-67
2023/01/06 12:41:32;;;;;;;;;;;;;;;17.09;49.17;100767.88;4964570;27;109475;-66
2023/01/06 12:44:08;;;;;;;;;;;;;;;17.00;49.09;100758.81;4979606;27;125564;-66
2023/01/06 12:46:37;;;;;;;;;;;;;;;16.93;49.31;100756.50;4981754;27;127200;-66
2023/01/06 12:49:05;;;;;;;;;;;;;;;16.90;49.20;100754.41;4980448;27;115935;-69
2023/01/06 12:51:39;;;;;;;;;;;;;;;16.85;49.38;100743.59;4980392;27;99500;-66